Time;durP1;ratioP1;P1;durP2;ratioP2;P2;SDS_P1;SDS_P2;PMS_P1;PMS_P2;Temp;Humidity;BMP_temperature;BMP_pressure;BME280_temperature;BME280_humidity;BME280_pressure;Samples;Min_cycle;Max_cycle;Signal;HPM_P1;HPM_P2
2022/08/07 00:01:03;;;;;;;0.60;0.30;;;;;;;18.05;54.63;100993.63;4985410;28;20478;-51
2022/08/07 00:03:49;;;;;;;0.90;0.80;;;;;;;18.02;55.38;100993.78;4987275;28;20466;-50
2022/08/07 00:06:16;;;;;;;0.50;0.30;;;;;;;17.91;55.55;100996.09;4986278;28;20456;-50
2022/08/07 00:08:45;;;;;;;1.70;0.40;;;;;;;18.02;55.02;101000.03;4990031;28;20544;-51
2022/08/07 00:11:12;;;;;;;0.50;0.30;;;;;;;17.68;55.70;100999.81;4993701;28;20493;-50
2022/08/07 00:13:46;;;;;;;2.80;0.40;;;;;;;17.82;55.68;100997.44;4980685;28;21033;-50
2022/08/07 00:16:14;;;;;;;2.13;0.33;;;;;;;17.85;55.71;100989.19;4993173;28;20453;-52
2022/08/07 00:18:47;;;;;;;8.33;1.00;;;;;;;17.58;56.79;100983.25;4993667;28;20559;-51
2022/08/07 00:21:13;;;;;;;0.50;0.30;;;;;;;17.30;57.60;100975.59;4991486;28;20477;-51
2022/08/07 00:24:00;;;;;;;0.50;0.30;;;;;;;17.30;57.71;100983.66;4974471;28;20470;-50
2022/08/07 00:26:26;;;;;;;0.70;0.40;;;;;;;17.13;58.19;100981.75;4991342;28;20969;-51
2022/08/07 00:29:14;;;;;;;13.00;0.80;;;;;;;17.25;57.70;100985.66;4992160;28;20973;-51
2022/08/07 00:31:41;;;;;;;0.77;0.70;;;;;;;16.77;58.81;100989.59;4981597;28;20946;-50
2022/08/07 00:34:07;;;;;;;0.50;0.30;;;;;;;16.67;58.97;100980.16;4980330;28;20500;-50
2022/08/07 00:36:36;;;;;;;7.87;0.77;;;;;;;16.36;59.17;100977.00;4985351;28;20451;-51
2022/08/07 00:39:08;;;;;;;4.97;0.70;;;;;;;16.40;59.22;100973.25;4989360;28;20796;-50
2022/08/07 00:41:48;;;;;;;0.90;0.50;;;;;;;16.16;60.20;100959.88;4984243;28;20449;-50
2022/08/07 00:44:26;;;;;;;0.80;0.50;;;;;;;16.32;59.78;100968.22;4992549;28;20559;-50
2022/08/07 00:46:54;;;;;;;7.37;0.30;;;;;;;16.14;60.58;100964.44;4993113;28;20453;-50
2022/08/07 00:49:21;;;;;;;0.50;0.30;;;;;;;15.93;61.23;100965.34;4995263;28;20457;-50
2022/08/07 00:52:08;;;;;;;7.53;0.70;;;;;;;15.87;61.71;100968.25;5001245;28;20449;-49
2022/08/07 00:54:35;;;;;;;0.50;0.30;;;;;;;15.66;62.55;100965.47;4979857;28;20469;-50
2022/08/07 00:57:06;;;;;;;0.70;0.43;;;;;;;15.78;62.64;100964.13;5000746;28;20488;-50
2022/08/07 00:59:36;;;;;;;0.50;0.30;;;;;;;15.66;61.96;100969.97;4979950;28;20481;-50
2022/08/07 01:02:05;;;;;;;0.50;0.30;;;;;;;16.03;61.61;100964.00;4979910;28;20827;-51
2022/08/07 01:04:52;;;;;;;0.50;0.30;;;;;;;16.38;60.23;100959.88;4983476;28;20473;-50
2022/08/07 01:07:23;;;;;;;0.50;0.30;;;;;;;15.92;61.63;100956.41;4989167;28;20464;-49
2022/08/07 01:09:53;;;;;;;0.50;0.30;;;;;;;16.02;61.53;100953.34;4992887;28;20950;-49
2022/08/07 01:12:38;;;;;;;0.50;0.30;;;;;;;15.97;61.41;100956.22;4980054;28;20935;-50
2022/08/07 01:15:19;;;;;;;0.50;0.30;;;;;;;16.00;61.62;100948.91;4990840;28;20461;-50
2022/08/07 01:17:45;;;;;;;0.50;0.30;;;;;;;16.28;60.54;100953.16;4989137;28;21069;-50
2022/08/07 01:20:15;;;;;;;0.57;0.33;;;;;;;16.04;61.15;100951.50;4988788;28;20465;-50
2022/08/07 01:22:43;;;;;;;4.10;0.50;;;;;;;15.86;62.31;100953.09;4982289;28;20446;-50
2022/08/07 01:25:33;;;;;;;0.80;0.40;;;;;;;16.09;60.95;100949.50;4981218;28;20458;-50
2022/08/07 01:28:20;;;;;;;0.50;0.30;;;;;;;16.28;60.90;100950.47;4986372;28;20442;-50
2022/08/07 01:30:49;;;;;;;0.50;0.30;;;;;;;15.70;61.94;100951.00;4987547;28;20453;-50
2022/08/07 01:33:17;;;;;;;0.60;0.50;;;;;;;15.49;63.11;100957.19;4989018;28;20971;-50
2022/08/07 01:35:44;;;;;;;0.70;0.40;;;;;;;15.54;62.78;100957.00;4987485;28;20453;-50
2022/08/07 01:38:30;;;;;;;0.50;0.30;;;;;;;15.82;62.53;100946.13;4992155;28;20900;-50
2022/08/07 01:40:59;;;;;;;0.80;0.40;;;;;;;15.70;62.66;100947.47;4980024;28;20932;-50
2022/08/07 01:43:27;;;;;;;0.70;0.30;;;;;;;15.28;63.79;100953.50;4979509;28;20491;-50
2022/08/07 01:46:04;;;;;;;0.60;0.30;;;;;;;15.40;64.06;100949.50;4987800;28;20540;-49
2022/08/07 01:48:33;;;;;;;0.50;0.30;;;;;;;15.50;63.50;100947.34;4992501;28;20449;-50
2022/08/07 01:51:06;;;;;;;3.63;0.80;;;;;;;15.38;64.11;100944.19;5008910;28;20461;-49
2022/08/07 01:53:56;;;;;;;0.80;0.30;;;;;;;15.35;64.40;100959.47;4996311;28;20473;-49
2022/08/07 01:56:59;;;;;;;0.50;0.30;;;;;;;15.26;64.69;100954.50;5001976;28;20453;-50
2022/08/07 01:59:52;;;;;;;0.50;0.30;;;;;;;15.30;64.18;100950.75;4989918;28;20454;-50
2022/08/07 02:02:26;;;;;;;0.60;0.30;;;;;;;15.27;64.50;100950.88;4991692;28;20456;-50
2022/08/07 02:05:17;;;;;;;0.50;0.30;;;;;;;15.09;64.95;100947.09;4989582;28;20480;-50
2022/08/07 02:08:09;;;;;;;0.40;0.30;;;;;;;14.82;65.85;100947.16;4994703;28;20802;-50
2022/08/07 02:10:42;;;;;;;0.50;0.30;;;;;;;15.08;65.55;100946.22;4995747;28;20977;-50
2022/08/07 02:13:15;;;;;;;0.50;0.30;;;;;;;14.78;66.45;100948.16;4983880;28;20473;-49
2022/08/07 02:15:44;;;;;;;0.50;0.30;;;;;;;15.03;65.85;100948.16;4995992;28;20544;-49
2022/08/07 02:18:12;;;;;;;1.93;0.40;;;;;;;14.81;66.73;100944.53;4991882;28;20489;-50
2022/08/07 02:20:41;;;;;;;0.50;0.30;;;;;;;14.92;65.88;100950.34;4989446;28;20454;-50
2022/08/07 02:23:15;;;;;;;0.50;0.30;;;;;;;14.57;66.33;100954.28;4989681;28;20484;-50
2022/08/07 02:25:52;;;;;;;1.63;0.40;;;;;;;14.47;67.52;100955.50;4985208;28;20492;-50
2022/08/07 02:28:39;;;;;;;1.43;0.60;;;;;;;14.47;67.09;100951.03;4989640;28;20445;-50
2022/08/07 02:31:07;;;;;;;0.93;0.50;;;;;;;14.39;67.50;100954.84;4983360;28;20486;-50
2022/08/07 02:33:56;;;;;;;0.40;0.30;;;;;;;14.33;67.86;100955.94;4984650;28;20461;-50
2022/08/07 02:36:39;;;;;;;0.53;0.33;;;;;;;14.05;68.53;100958.66;4991362;28;20454;-51
2022/08/07 02:39:09;;;;;;;0.60;0.30;;;;;;;14.19;68.58;100950.19;4993495;28;20567;-49
2022/08/07 02:41:56;;;;;;;0.97;0.70;;;;;;;13.94;68.97;100945.63;4984050;28;20449;-51
2022/08/07 02:44:24;;;;;;;0.50;0.40;;;;;;;13.98;68.79;100942.84;4989234;28;20466;-51
2022/08/07 02:47:00;;;;;;;0.97;0.40;;;;;;;13.92;69.25;100952.81;4982665;28;20951;-51
2022/08/07 02:49:27;;;;;;;1.10;0.40;;;;;;;13.89;69.69;100946.69;4995391;28;20444;-50
2022/08/07 02:52:19;;;;;;;0.60;0.30;;;;;;;13.73;70.50;100943.63;5003264;28;20457;-50
2022/08/07 02:55:03;;;;;;;0.50;0.30;;;;;;;13.78;69.71;100939.00;4987257;28;20470;-50
2022/08/07 02:57:52;;;;;;;0.57;0.37;;;;;;;13.69;70.31;100935.75;5003871;28;20485;-50
2022/08/07 03:00:19;;;;;;;0.50;0.30;;;;;;;13.67;70.53;100938.47;4986466;28;20930;-50
2022/08/07 03:02:48;;;;;;;0.80;0.53;;;;;;;13.71;70.88;100933.94;4988098;28;20826;-49
2022/08/07 03:05:23;;;;;;;0.40;0.23;;;;;;;13.64;70.66;100920.75;4988662;28;20930;-50
2022/08/07 03:07:51;;;;;;;2.43;0.87;;;;;;;13.55;71.27;100917.47;4983029;28;20450;-50
2022/08/07 03:10:37;;;;;;;0.60;0.50;;;;;;;13.71;71.19;100924.13;4991128;28;20450;-50
2022/08/07 03:13:16;;;;;;;0.50;0.37;;;;;;;13.58;70.98;100923.63;4992675;28;20497;-49
2022/08/07 03:15:44;;;;;;;0.40;0.20;;;;;;;13.54;71.46;100921.06;4989465;28;20458;-50
2022/08/07 03:18:25;;;;;;;0.50;0.30;;;;;;;13.39;71.95;100926.88;4991453;28;20485;-50
2022/08/07 03:21:03;;;;;;;17.63;0.60;;;;;;;13.36;71.79;100926.97;4985566;28;20454;-49
2022/08/07 03:23:37;;;;;;;0.47;0.30;;;;;;;13.18;72.79;100929.28;4988482;28;20494;-50
2022/08/07 03:26:26;;;;;;;0.60;0.30;;;;;;;13.33;72.24;100931.50;4988539;28;20473;-50
2022/08/07 03:28:57;;;;;;;0.50;0.30;;;;;;;13.41;72.30;100925.03;4991310;28;20449;-49
2022/08/07 03:31:25;;;;;;;2.20;0.50;;;;;;;13.30;72.13;100926.25;4981547;28;20453;-50
2022/08/07 03:34:13;;;;;;;0.40;0.27;;;;;;;13.25;72.05;100920.16;4994589;28;20481;-49
2022/08/07 03:36:50;;;;;;;0.60;0.37;;;;;;;13.38;71.88;100914.44;4981518;28;20449;-49
2022/08/07 03:39:19;;;;;;;2.50;0.60;;;;;;;13.41;71.06;100915.22;4994102;28;20493;-49
2022/08/07 03:42:08;;;;;;;0.40;0.30;;;;;;;12.80;74.58;100906.31;4985555;28;20446;-50
2022/08/07 03:44:36;;;;;;;0.60;0.50;;;;;;;13.08;73.29;100908.19;4987979;28;20478;-49
2022/08/07 03:47:04;;;;;;;0.50;0.30;;;;;;;13.08;73.58;100914.41;4992441;28;20450;-50
2022/08/07 03:49:42;;;;;;;0.73;0.40;;;;;;;12.96;74.22;100910.28;4999374;28;20454;-49
2022/08/07 03:52:24;;;;;;;0.60;0.40;;;;;;;13.07;73.44;100914.44;4987695;28;20445;-50
2022/08/07 03:54:56;;;;;;;0.50;0.40;;;;;;;13.04;73.73;100904.75;4982652;28;20466;-50
2022/08/07 03:57:34;;;;;;;0.40;0.30;;;;;;;13.08;73.35;100905.50;5001086;28;20496;-50
2022/08/07 04:00:21;;;;;;;0.50;0.30;;;;;;;13.05;73.71;100919.84;4981714;28;20514;-50
2022/08/07 04:02:57;;;;;;;0.67;0.50;;;;;;;12.95;74.79;100913.00;4981727;28;20453;-50
2022/08/07 04:05:24;;;;;;;0.67;0.30;;;;;;;13.09;73.54;100918.81;4980953;28;20466;-50
2022/08/07 04:08:10;;;;;;;0.50;0.40;;;;;;;13.17;73.99;100922.16;4993870;28;20461;-49
2022/08/07 04:10:38;;;;;;;0.50;0.30;;;;;;;12.98;74.44;100916.44;4993481;28;20951;-49
2022/08/07 04:13:12;;;;;;;0.77;0.40;;;;;;;12.87;75.42;100917.66;4982249;28;20509;-50
2022/08/07 04:15:42;;;;;;;0.50;0.30;;;;;;;12.77;75.63;100927.72;4992851;28;20449;-49
2022/08/07 04:18:13;;;;;;;0.57;0.37;;;;;;;12.83;75.86;100932.00;4992436;28;20511;-50
2022/08/07 04:20:59;;;;;;;0.60;0.50;;;;;;;13.01;75.54;100931.50;4983251;28;20453;-50
2022/08/07 04:23:27;;;;;;;0.93;0.50;;;;;;;12.93;75.58;100926.38;4991046;28;20483;-50
2022/08/07 04:26:14;;;;;;;0.50;0.37;;;;;;;12.85;75.87;100923.03;4982286;28;20459;-50
2022/08/07 04:28:47;;;;;;;0.50;0.30;;;;;;;12.79;75.91;100930.34;4991949;28;20449;-49
2022/08/07 04:31:14;;;;;;;0.50;0.30;;;;;;;12.83;76.44;100919.53;4979555;28;20461;-49
2022/08/07 04:34:01;;;;;;;0.60;0.40;;;;;;;12.92;75.82;100924.63;4983273;28;20486;-50
2022/08/07 04:36:28;;;;;;;0.93;0.30;;;;;;;12.96;75.39;100936.09;4980798;28;20552;-50
2022/08/07 04:38:55;;;;;;;1.33;0.47;;;;;;;12.92;76.53;100934.44;4993175;28;20524;-49
2022/08/07 04:41:23;;;;;;;0.50;0.40;;;;;;;13.16;74.77;100936.41;4990683;28;20808;-49
2022/08/07 04:43:54;;;;;;;0.50;0.30;;;;;;;12.87;75.73;100937.22;4983122;28;20561;-49
2022/08/07 04:46:51;;;;;;;0.47;0.30;;;;;;;12.89;77.60;100945.19;4988139;28;20449;-51
2022/08/07 04:49:48;;;;;;;1.03;0.50;;;;;;;13.33;75.47;100950.19;4996342;28;20819;-50
2022/08/07 04:52:43;;;;;;;0.50;0.30;;;;;;;13.08;75.68;100941.09;4996156;28;20495;-50
2022/08/07 04:55:50;;;;;;;0.60;0.30;;;;;;;14.24;71.26;100948.22;4985246;28;20523;-50
2022/08/07 04:58:46;;;;;;;2.10;0.30;;;;;;;15.82;65.39;100946.97;4989123;28;20505;-49
2022/08/07 05:01:59;;;;;;;0.60;0.30;;;;;;;16.59;62.05;100952.75;4982959;28;20445;-50
2022/08/07 05:04:31;;;;;;;5.80;0.30;;;;;;;17.16;60.45;100956.53;4980223;28;20983;-49
2022/08/07 05:07:19;;;;;;;1.90;0.73;;;;;;;17.79;57.97;100962.59;4981533;28;20469;-50
2022/08/07 05:09:58;;;;;;;0.70;0.50;;;;;;;17.97;57.51;100958.16;4982623;28;20471;-50
2022/08/07 05:12:33;;;;;;;0.60;0.40;;;;;;;18.67;56.29;100951.09;4992283;28;20543;-50
2022/08/07 05:15:16;;;;;;;1.17;0.70;;;;;;;18.55;55.09;100961.50;4980688;28;20469;-50
2022/08/07 05:17:55;;;;;;;0.60;0.40;;;;;;;18.50;55.59;100965.38;4991231;28;20457;-50
2022/08/07 05:20:30;;;;;;;1.07;0.97;;;;;;;18.85;54.50;100961.78;4988703;28;20446;-50
2022/08/07 05:23:02;;;;;;;1.37;0.50;;;;;;;19.11;53.79;100959.53;4985428;28;20992;-50
2022/08/07 05:25:32;;;;;;;0.50;0.30;;;;;;;19.05;53.89;100968.84;4981984;28;20460;-50
2022/08/07 05:28:20;;;;;;;23.20;0.93;;;;;;;19.32;53.48;100961.06;4994049;28;20833;-51
2022/08/07 05:30:54;;;;;;;0.50;0.40;;;;;;;19.20;53.21;100959.94;4996480;28;21001;-51
2022/08/07 05:33:22;;;;;;;0.50;0.30;;;;;;;19.80;51.82;100960.25;4992430;28;20474;-51
2022/08/07 05:35:51;;;;;;;0.80;0.50;;;;;;;19.68;52.55;100957.34;4988639;28;20503;-51
2022/08/07 05:38:21;;;;;;;1.93;0.77;;;;;;;19.88;51.43;100972.44;4993875;28;20837;-51
2022/08/07 05:41:09;;;;;;;0.97;0.73;;;;;;;19.69;52.29;100972.59;4996134;28;20441;-51
2022/08/07 05:43:47;;;;;;;0.60;0.30;;;;;;;19.83;52.10;100968.16;4996030;28;20474;-51
2022/08/07 05:46:36;;;;;;;0.87;0.70;;;;;;;20.12;51.90;100968.34;4991212;28;20445;-51
2022/08/07 05:49:06;;;;;;;0.70;0.47;;;;;;;19.95;52.08;100972.00;4993784;28;20451;-52
2022/08/07 05:51:38;;;;;;;0.50;0.30;;;;;;;19.91;52.15;100970.44;4998397;28;20864;-51
2022/08/07 05:54:06;;;;;;;0.60;0.40;;;;;;;20.22;51.56;100976.78;4983372;28;20533;-50
2022/08/07 05:56:53;;;;;;;1.33;0.40;;;;;;;20.40;51.66;100976.56;4999370;28;20458;-51
2022/08/07 05:59:21;;;;;;;0.60;0.40;;;;;;;20.09;52.58;100976.63;4995539;28;20489;-51
2022/08/07 06:01:49;;;;;;;0.77;0.50;;;;;;;20.61;50.81;100979.91;4995912;28;20461;-50
2022/08/07 06:04:18;;;;;;;0.60;0.47;;;;;;;20.44;51.56;100987.25;4983220;28;20469;-51
2022/08/07 06:06:46;;;;;;;1.30;0.60;;;;;;;20.29;52.32;100979.06;4993660;28;20453;-50
2022/08/07 06:09:15;;;;;;;0.60;0.40;;;;;;;20.87;51.05;100981.03;4990551;28;20450;-51
2022/08/07 06:11:42;;;;;;;0.93;0.70;;;;;;;21.08;50.14;100978.84;4995939;28;20468;-50
2022/08/07 06:14:09;;;;;;;0.70;0.50;;;;;;;20.95;51.00;100967.91;4982628;28;20470;-51
2022/08/07 06:16:54;;;;;;;0.50;0.30;;;;;;;21.52;50.50;100975.28;4994160;28;20445;-51
2022/08/07 06:19:23;;;;;;;0.60;0.30;;;;;;;21.21;52.13;100979.84;4984857;28;20547;-51
2022/08/07 06:22:10;;;;;;;0.50;0.40;;;;;;;21.59;51.61;100982.88;4989656;28;20446;-51
2022/08/07 06:24:49;;;;;;;0.53;0.30;;;;;;;21.70;49.67;100986.75;4989969;28;21013;-50
2022/08/07 06:27:26;;;;;;;0.70;0.60;;;;;;;22.03;46.75;100979.16;4995384;28;20589;-51
2022/08/07 06:30:13;;;;;;;0.50;0.30;;;;;;;21.80;44.83;100977.09;4995344;28;20947;-51
2022/08/07 06:33:00;;;;;;;0.60;0.40;;;;;;;21.77;44.25;100975.44;4982492;28;20855;-51
2022/08/07 06:35:29;;;;;;;2.13;0.50;;;;;;;21.56;44.81;100985.81;4987654;28;20451;-52
2022/08/07 06:38:13;;;;;;;0.50;0.30;;;;;;;21.44;44.27;100981.16;4988438;28;20589;-51
2022/08/07 06:40:51;;;;;;;1.57;0.50;;;;;;;21.60;44.31;100975.66;4991955;28;20460;-50
2022/08/07 06:43:21;;;;;;;0.50;0.30;;;;;;;21.70;44.54;100979.50;4988847;28;20529;-51
2022/08/07 06:45:49;;;;;;;0.50;0.20;;;;;;;21.73;43.96;100975.72;4990324;28;20897;-50
2022/08/07 06:48:17;;;;;;;0.50;0.30;;;;;;;21.64;43.99;100979.88;4991834;28;20449;-50
2022/08/07 06:50:53;;;;;;;0.50;0.30;;;;;;;21.54;43.99;100974.22;4993752;28;20458;-52
2022/08/07 06:53:21;;;;;;;0.50;0.30;;;;;;;21.39;44.50;100974.31;4981149;28;20478;-51
2022/08/07 06:56:10;;;;;;;0.80;0.33;;;;;;;21.56;44.55;100969.56;4992127;28;20449;-51
2022/08/07 06:58:42;;;;;;;0.50;0.30;;;;;;;21.65;44.12;100969.94;4997156;28;20573;-51
2022/08/07 07:01:32;;;;;;;0.50;0.27;;;;;;;21.88;43.69;100959.38;4984301;28;20446;-52
2022/08/07 07:04:16;;;;;;;0.70;0.50;;;;;;;21.59;43.75;100960.38;4988472;28;20477;-51
2022/08/07 07:06:59;;;;;;;0.60;0.37;;;;;;;21.75;43.20;100958.41;4988565;28;20441;-51
2022/08/07 07:09:29;;;;;;;0.60;0.30;;;;;;;21.93;43.63;100960.91;4982671;28;20545;-51
2022/08/07 07:12:13;;;;;;;0.50;0.30;;;;;;;22.05;43.31;100961.00;4987865;28;20449;-51
2022/08/07 07:14:54;;;;;;;1.03;0.30;;;;;;;21.88;42.91;100959.38;4980945;28;20544;-51
2022/08/07 07:17:31;;;;;;;0.77;0.40;;;;;;;21.76;43.04;100957.44;4993085;28;20457;-50
2022/08/07 07:20:13;;;;;;;14.57;0.53;;;;;;;21.83;42.98;100956.09;4983831;28;20492;-50
2022/08/07 07:22:41;;;;;;;0.50;0.30;;;;;;;21.86;43.01;100958.59;4987551;28;20468;-51
2022/08/07 07:25:28;;;;;;;4.27;0.40;;;;;;;21.74;43.16;100961.22;4994166;28;20489;-51
2022/08/07 07:28:35;;;;;;;0.67;0.40;;;;;;;21.83;43.38;100952.53;4988281;28;20441;-51
2022/08/07 07:31:32;;;;;;;3.13;0.40;;;;;;;21.75;43.51;100954.84;4989062;28;20445;-51
2022/08/07 07:34:09;;;;;;;0.50;0.30;;;;;;;21.76;43.60;100954.75;4993912;28;20537;-51
2022/08/07 07:36:43;;;;;;;0.50;0.30;;;;;;;21.98;43.00;100950.66;4992434;28;20453;-51
2022/08/07 07:39:15;;;;;;;3.80;0.50;;;;;;;22.02;43.08;100944.94;4994273;28;20477;-50
2022/08/07 07:41:48;;;;;;;3.90;0.40;;;;;;;22.15;43.10;100956.72;4991166;28;20453;-51
2022/08/07 07:44:38;;;;;;;0.50;0.30;;;;;;;22.22;43.13;100946.38;4993681;28;20476;-52
2022/08/07 07:47:07;;;;;;;0.57;0.33;;;;;;;22.41;42.99;100954.13;4994091;28;20463;-51
2022/08/07 07:49:50;;;;;;;0.60;0.30;;;;;;;22.50;42.74;100950.81;4996306;28;20446;-50
2022/08/07 07:52:38;;;;;;;0.60;0.53;;;;;;;22.75;42.75;100942.75;4991505;28;20453;-51
2022/08/07 07:55:06;;;;;;;0.60;0.40;;;;;;;22.51;42.94;100946.25;4983532;28;20529;-50
2022/08/07 07:57:37;;;;;;;57.43;1.17;;;;;;;22.44;42.83;100948.50;4997079;28;20643;-50
2022/08/07 08:00:19;;;;;;;0.50;0.30;;;;;;;22.67;42.30;100939.69;4986506;28;20482;-51
2022/08/07 08:03:00;;;;;;;0.50;0.30;;;;;;;22.78;42.62;100936.22;4988377;28;20457;-52
2022/08/07 08:05:36;;;;;;;0.57;0.40;;;;;;;22.72;43.41;100925.78;4990531;28;20512;-51
2022/08/07 08:08:23;;;;;;;0.60;0.40;;;;;;;22.72;43.75;100940.22;4986225;28;20450;-51
2022/08/07 08:11:05;;;;;;;0.90;0.50;;;;;;;22.84;43.87;100934.97;4980941;28;20458;-51
2022/08/07 08:13:37;;;;;;;0.40;0.30;;;;;;;23.26;42.38;100929.22;4979272;28;20493;-51
2022/08/07 08:16:26;;;;;;;9.00;0.40;;;;;;;23.44;42.64;100934.34;4993260;28;20792;-52
2022/08/07 08:18:58;;;;;;;2.00;0.40;;;;;;;23.54;42.59;100928.09;4986590;28;20485;-51
2022/08/07 08:27:50;;;;;;;0.60;0.37;;;;;;;23.72;42.71;100930.53;4985199;28;20553;-51
2022/08/07 08:30:32;;;;;;;0.60;0.40;;;;;;;23.39;43.46;100920.22;4984707;28;20548;-51
2022/08/07 08:33:05;;;;;;;1.43;1.33;;;;;;;23.43;43.48;100924.44;4992036;28;20829;-50
2022/08/07 08:35:44;;;;;;;0.70;0.40;;;;;;;23.47;43.98;100918.69;4983151;28;20476;-51
2022/08/07 08:38:21;;;;;;;0.60;0.30;;;;;;;23.47;44.58;100918.69;4987367;28;20536;-51
2022/08/07 08:41:41;;;;;;;1.27;0.80;;;;;;;23.80;43.46;100920.81;4986513;28;20504;-51
2022/08/07 08:44:31;;;;;;;1.10;0.70;;;;;;;24.16;43.47;100921.78;4987740;28;20458;-51
2022/08/07 08:47:07;;;;;;;0.80;0.70;;;;;;;24.10;44.09;100925.81;4993181;28;20461;-51
2022/08/07 08:49:49;;;;;;;5.70;1.10;;;;;;;23.94;45.42;100920.66;4993661;28;20449;-50
2022/08/07 08:52:34;;;;;;;0.70;0.50;;;;;;;23.55;43.86;100909.97;4992666;28;20951;-51
2022/08/07 08:55:18;;;;;;;2.30;0.40;;;;;;;24.07;42.74;100912.47;4993166;28;20952;-51
2022/08/07 08:58:22;;;;;;;0.90;0.70;;;;;;;23.82;44.75;100913.41;5003663;28;20464;-52
2022/08/07 09:01:01;;;;;;;1.00;1.00;;;;;;;23.96;43.83;100911.53;4992210;28;20476;-51
2022/08/07 09:03:57;;;;;;;1.20;0.40;;;;;;;24.22;43.00;100907.72;4987728;28;20841;-51
2022/08/07 09:06:52;;;;;;;0.63;0.50;;;;;;;24.54;43.21;100899.00;4992453;28;20453;-52
2022/08/07 09:09:30;;;;;;;9.77;0.57;;;;;;;24.66;42.15;100898.03;4992308;28;20446;-51
2022/08/07 09:12:19;;;;;;;0.70;0.50;;;;;;;24.53;42.81;100898.13;4994367;28;20464;-51
2022/08/07 09:15:11;;;;;;;0.50;0.40;;;;;;;24.87;42.73;100898.22;4994029;28;20473;-52
2022/08/07 09:18:29;;;;;;;0.70;0.70;;;;;;;24.51;43.47;100900.09;4995263;28;20464;-51
2022/08/07 09:21:25;;;;;;;1.13;0.70;;;;;;;24.73;43.82;100885.72;4988200;28;20493;-51
2022/08/07 09:24:20;;;;;;;0.73;0.43;;;;;;;24.47;43.78;100891.31;4982274;28;20474;-52
2022/08/07 09:27:23;;;;;;;0.90;0.40;;;;;;;24.76;43.48;100891.75;4983932;28;20451;-51
2022/08/07 09:29:59;;;;;;;0.67;0.40;;;;;;;24.66;43.16;100889.88;4989064;28;20453;-52
2022/08/07 09:32:54;;;;;;;0.70;0.60;;;;;;;24.69;43.58;100889.66;4991631;28;20453;-52
2022/08/07 09:35:41;;;;;;;0.80;0.70;;;;;;;24.62;44.52;100885.66;4980671;28;20469;-52
2022/08/07 09:38:48;;;;;;;0.80;0.60;;;;;;;24.84;44.51;100887.59;4979495;28;20447;-53
2022/08/07 09:41:45;;;;;;;0.60;0.50;;;;;;;25.04;44.46;100884.19;4976571;28;20455;-53
2022/08/07 09:44:46;;;;;;;0.70;0.40;;;;;;;25.40;44.39;100874.94;4987473;28;20449;-52
2022/08/07 09:47:35;;;;;;;0.90;0.50;;;;;;;25.01;45.05;100873.56;4986113;28;20449;-52
2022/08/07 09:50:35;;;;;;;1.07;0.97;;;;;;;24.87;44.50;100871.88;4991790;28;20441;-52
2022/08/07 09:53:04;;;;;;;5.07;0.70;;;;;;;25.44;44.02;100867.38;4992536;28;20461;-52
2022/08/07 09:56:09;;;;;;;0.67;0.67;;;;;;;25.01;43.50;100863.53;4992307;28;20831;-51
2022/08/07 09:59:08;;;;;;;0.60;0.50;;;;;;;25.46;42.90;100862.66;4992337;28;20460;-52
2022/08/07 10:01:48;;;;;;;0.60;0.43;;;;;;;25.84;42.91;100851.34;4983319;28;20480;-51
2022/08/07 10:04:44;;;;;;;0.80;0.60;;;;;;;25.87;42.04;100849.22;4992380;28;20472;-52
2022/08/07 10:07:56;;;;;;;0.60;0.40;;;;;;;25.99;41.63;100845.47;4992346;28;20520;-51
2022/08/07 10:10:39;;;;;;;0.93;0.87;;;;;;;25.83;41.46;100844.19;4991936;28;21010;-52
2022/08/07 10:13:43;;;;;;;4.43;0.70;;;;;;;25.48;41.96;100844.34;4996270;28;20958;-51
2022/08/07 10:16:36;;;;;;;1.10;1.00;;;;;;;25.25;42.24;100833.50;4996303;28;20472;-51
2022/08/07 10:19:06;;;;;;;4.50;0.50;;;;;;;25.62;41.46;100835.88;4983066;28;20528;-51
2022/08/07 10:21:48;;;;;;;2.17;0.70;;;;;;;25.49;42.24;100830.59;4983142;28;20446;-51
2022/08/07 10:24:50;;;;;;;0.60;0.40;;;;;;;25.40;41.75;100829.50;4987478;28;20473;-51
2022/08/07 10:27:22;;;;;;;1.37;0.80;;;;;;;25.47;40.87;100832.56;4993550;28;20496;-51
2022/08/07 10:30:15;;;;;;;0.60;0.40;;;;;;;25.48;41.38;100828.84;4996051;28;20457;-51
2022/08/07 10:32:48;;;;;;;0.53;0.40;;;;;;;25.60;41.20;100819.69;4987659;28;20499;-51
2022/08/07 10:35:31;;;;;;;0.70;0.60;;;;;;;25.40;41.05;100820.47;4983074;28;20450;-50
2022/08/07 10:38:59;;;;;;;0.60;0.40;;;;;;;26.02;40.93;100811.66;4995470;28;20461;-51
2022/08/07 10:41:38;;;;;;;0.60;0.40;;;;;;;25.92;40.51;100814.31;4978688;28;20462;-51
2022/08/07 10:44:23;;;;;;;1.13;0.40;;;;;;;25.87;40.43;100813.81;4984124;28;20481;-51
2022/08/07 10:47:14;;;;;;;3.17;0.70;;;;;;;26.14;38.48;100802.44;4996211;28;20457;-51
2022/08/07 10:50:02;;;;;;;0.60;0.40;;;;;;;26.02;38.65;100814.38;5000249;28;20539;-51
2022/08/07 10:52:39;;;;;;;0.60;0.40;;;;;;;25.85;38.46;100817.66;4993211;28;20584;-51
2022/08/07 10:55:16;;;;;;;0.60;0.40;;;;;;;26.03;38.88;100812.53;4990052;28;20473;-53
2022/08/07 10:58:14;;;;;;;10.70;0.70;;;;;;;26.04;38.91;100804.25;5005284;28;20959;-51
2022/08/07 11:00:54;;;;;;;0.57;0.43;;;;;;;25.99;37.50;100811.91;4981977;28;20489;-51
2022/08/07 11:03:47;;;;;;;0.60;0.40;;;;;;;25.88;37.36;100804.66;4992040;28;20479;-52
2022/08/07 11:06:46;;;;;;;1.00;0.50;;;;;;;26.55;36.28;100798.03;4984910;28;20449;-52
2022/08/07 11:09:51;;;;;;;1.17;1.07;;;;;;;26.14;35.80;100797.00;4981743;28;20453;-51
2022/08/07 11:12:47;;;;;;;0.50;0.40;;;;;;;26.10;36.41;100787.34;4981528;28;20449;-51
2022/08/07 11:15:33;;;;;;;0.70;0.40;;;;;;;26.05;36.50;100786.91;4991268;28;20461;-51
2022/08/07 11:18:31;;;;;;;0.70;0.40;;;;;;;26.01;36.62;100787.25;4994700;28;20511;-51
2022/08/07 11:21:05;;;;;;;1.43;0.50;;;;;;;26.35;35.75;100777.94;4986139;28;20572;-52
2022/08/07 11:23:45;;;;;;;1.43;0.60;;;;;;;26.28;36.34;100774.84;4987823;28;20500;-52
2022/08/07 11:26:27;;;;;;;0.60;0.40;;;;;;;26.45;36.30;100778.91;4986783;28;20890;-52
2022/08/07 11:29:02;;;;;;;1.90;1.03;;;;;;;26.47;36.13;100766.00;4987916;28;20454;-52
2022/08/07 11:31:41;;;;;;;0.70;0.50;;;;;;;26.43;35.47;100769.09;4990849;28;20854;-52
2022/08/07 11:34:38;;;;;;;0.60;0.50;;;;;;;26.87;35.26;100765.19;4984295;28;20992;-52
2022/08/07 11:37:26;;;;;;;0.60;0.50;;;;;;;27.14;34.96;100761.88;4993940;28;20452;-52
2022/08/07 11:40:24;;;;;;;0.60;0.40;;;;;;;27.24;34.30;100757.28;4990763;28;20477;-52
2022/08/07 11:43:01;;;;;;;0.70;0.50;;;;;;;27.49;34.48;100752.31;4981428;28;20505;-52
2022/08/07 11:45:50;;;;;;;0.60;0.50;;;;;;;27.17;33.73;100745.22;4993929;28;20516;-52
2022/08/07 11:48:46;;;;;;;0.60;0.40;;;;;;;26.86;34.76;100739.78;4989644;28;20512;-52
2022/08/07 11:51:45;;;;;;;1.70;0.70;;;;;;;26.70;34.16;100752.16;4981856;28;20456;-52
2022/08/07 11:54:30;;;;;;;1.10;0.70;;;;;;;26.80;34.58;100743.03;4991373;28;20847;-52
2022/08/07 11:57:15;;;;;;;1.00;0.43;;;;;;;26.34;35.46;100753.53;4998759;28;20550;-52
2022/08/07 11:59:57;;;;;;;0.60;0.40;;;;;;;26.52;34.93;100749.22;4982175;28;20496;-52
2022/08/07 12:03:17;;;;;;;1.63;0.50;;;;;;;26.66;35.10;100742.53;4983751;28;20458;-52
2022/08/07 12:06:03;;;;;;;1.67;0.53;;;;;;;26.69;34.23;100750.44;4981090;28;20452;-52
2022/08/07 12:09:13;;;;;;;0.70;0.40;;;;;;;27.12;34.52;100742.03;4988118;28;20447;-53
2022/08/07 12:11:59;;;;;;;0.70;0.47;;;;;;;26.44;34.74;100743.56;4987455;28;20580;-53
2022/08/07 12:15:02;;;;;;;1.37;0.50;;;;;;;26.07;35.15;100743.16;4984477;28;20473;-52
2022/08/07 12:17:38;;;;;;;0.70;0.50;;;;;;;26.63;34.92;100730.03;4981876;28;20541;-52
2022/08/07 12:20:28;;;;;;;0.60;0.40;;;;;;;26.77;33.92;100737.84;4981190;28;20576;-51
2022/08/07 12:23:21;;;;;;;0.50;0.30;;;;;;;26.86;33.77;100737.03;4981143;28;20450;-51
2022/08/07 12:26:33;;;;;;;0.70;0.60;;;;;;;26.99;33.89;100739.50;4986339;28;20458;-53
2022/08/07 12:29:22;;;;;;;1.10;0.60;;;;;;;26.69;33.38;100734.06;4983160;28;21018;-51
2022/08/07 12:32:28;;;;;;;0.50;0.37;;;;;;;26.61;32.91;100731.19;4981831;28;20457;-51
2022/08/07 12:34:57;;;;;;;0.50;0.30;;;;;;;26.84;33.10;100724.50;4979366;28;20469;-52